Time;durP1;ratioP1;P1;durP2;ratioP2;P2;SDS_P1;SDS_P2;PMS_P1;PMS_P2;Temp;Humidity;BMP_temperature;BMP_pressure;BME280_temperature;BME280_humidity;BME280_pressure;Samples;Min_cycle;Max_cycle;Signal;HPM_P1;HPM_P2
2022/10/30 00:00:18;;;;;;;45.40;42.17;;;17.30;99.00;;;;;;5053426;28;20039;-88
2022/10/30 00:02:46;;;;;;;49.35;45.90;;;17.30;99.30;;;;;;5038460;28;20056;-85
2022/10/30 00:05:12;;;;;;;49.92;46.22;;;17.40;98.80;;;;;;5053526;28;20041;-86
2022/10/30 00:07:38;;;;;;;52.40;48.88;;;17.50;99.10;;;;;;5052199;28;20047;-87
2022/10/30 00:10:05;;;;;;;53.60;49.45;;;17.30;99.20;;;;;;5035934;28;20036;-87
2022/10/30 00:12:31;;;;;;;51.63;47.80;;;17.20;99.20;;;;;;5038138;28;20044;-86
2022/10/30 00:14:57;;;;;;;49.67;45.92;;;17.20;99.00;;;;;;5038749;28;20412;-86
2022/10/30 00:17:23;;;;;;;50.67;47.22;;;17.30;99.00;;;;;;5053915;28;20517;-86
2022/10/30 00:19:49;;;;;;;52.15;48.60;;;17.30;99.20;;;;;;5038703;28;20043;-87
2022/10/30 00:22:15;;;;;;;51.13;47.55;;;17.20;99.50;;;;;;5039687;28;20040;-87
2022/10/30 00:24:41;;;;;;;51.72;48.10;;;17.20;99.40;;;;;;5039023;28;20461;-86
2022/10/30 00:27:07;;;;;;;50.58;47.10;;;17.20;99.10;;;;;;5054146;28;20029;-87
2022/10/30 00:29:34;;;;;;;48.65;44.85;;;17.30;99.10;;;;;;5054080;28;20040;-88
2022/10/30 00:32:00;;;;;;;52.83;48.13;;;17.30;98.90;;;;;;5049045;28;20039;-86
2022/10/30 00:34:26;;;;;;;51.35;47.50;;;17.40;98.80;;;;;;5065470;28;20031;-85
2022/10/30 00:36:52;;;;;;;50.72;47.08;;;17.40;98.70;;;;;;5053322;28;20044;-87
2022/10/30 00:39:18;;;;;;;52.38;48.55;;;17.40;98.70;;;;;;5056751;28;20024;-86
2022/10/30 00:41:44;;;;;;;51.88;47.88;;;17.40;98.70;;;;;;5054123;28;20032;-86
2022/10/30 00:44:35;;;;;;;51.13;47.63;;;17.40;98.50;;;;;;5057318;28;20024;-85
2022/10/30 00:47:03;;;;;;;51.65;48.03;;;17.50;98.40;;;;;;5090693;28;20035;-86
2022/10/30 00:49:37;;;;;;;50.33;46.90;;;17.50;98.40;;;;;;5036492;28;20636;-86
2022/10/30 00:52:05;;;;;;;49.97;46.63;;;17.40;98.40;;;;;;5071173;28;20036;-86
2022/10/30 00:54:31;;;;;;;50.28;46.63;;;17.40;98.50;;;;;;5055824;28;20075;-86
2022/10/30 00:57:00;;;;;;;49.85;46.08;;;17.40;98.60;;;;;;5073707;28;20051;-86
2022/10/30 00:59:29;;;;;;;50.78;47.38;;;17.40;99.00;;;;;;5059906;28;20024;-87
2022/10/30 01:01:55;;;;;;;47.20;43.65;;;17.10;99.80;;;;;;5063389;28;20033;-86
2022/10/30 01:04:21;;;;;;;47.38;43.70;;;17.00;99.90;;;;;;5044178;28;20370;-86
2022/10/30 01:06:47;;;;;;;46.28;42.58;;;16.90;99.90;;;;;;5040776;28;20035;-86
2022/10/30 01:09:14;;;;;;;43.60;39.97;;;16.80;99.90;;;;;;5027464;28;20051;-86
2022/10/30 01:11:40;;;;;;;40.40;37.15;;;16.70;99.90;;;;;;5073737;28;20036;-86
2022/10/30 01:14:07;;;;;;;36.45;33.40;;;16.70;99.90;;;;;;5061064;28;20032;-87
2022/10/30 01:16:51;;;;;;;38.50;35.50;;;16.70;99.90;;;;;;5042777;28;20499;-87
2022/10/30 01:19:32;;;;;;;37.22;33.90;;;16.70;99.90;;;;;;5095546;28;20039;-86
2022/10/30 01:22:28;;;;;;;34.65;31.38;;;16.80;99.90;;;;;;5043800;28;20052;-87
2022/10/30 01:25:02;;;;;;;34.55;31.75;;;16.80;99.90;;;;;;5065571;28;20039;-86
2022/10/30 01:27:34;;;;;;;33.80;30.55;;;16.80;99.90;;;;;;5059877;28;20024;-86
2022/10/30 01:30:15;;;;;;;35.45;32.15;;;16.90;99.90;;;;;;5059411;28;20035;-87
2022/10/30 01:32:53;;;;;;;33.92;30.67;;;17.00;99.90;;;;;;5076417;28;20040;-86
2022/10/30 01:35:27;;;;;;;36.58;33.05;;;17.00;99.90;;;;;;5068926;28;20048;-87
2022/10/30 01:38:04;;;;;;;35.72;32.35;;;17.00;99.90;;;;;;5051891;28;20040;-86
2022/10/30 01:40:31;;;;;;;35.67;32.47;;;17.00;99.90;;;;;;5071876;28;20039;-87
2022/10/30 01:42:57;;;;;;;36.50;33.28;;;17.10;99.90;;;;;;5043465;28;20035;-87
2022/10/30 01:45:32;;;;;;;36.35;33.40;;;17.20;99.80;;;;;;5039379;28;20036;-86
2022/10/30 01:48:11;;;;;;;35.25;32.47;;;17.20;99.90;;;;;;5074683;28;20377;-87
2022/10/30 01:50:40;;;;;;;35.25;32.08;;;16.90;99.90;;;;;;5043110;28;20032;-86
2022/10/30 01:53:35;;;;;;;35.70;32.60;;;16.90;99.90;;;;;;5059932;28;20473;-86
2022/10/30 01:56:23;;;;;;;32.30;29.55;;;17.00;99.90;;;;;;5044628;28;20425;-86
2022/10/30 01:59:10;;;;;;;35.15;29.50;;;16.80;99.90;;;;;;5060784;28;20032;-86
2022/10/30 02:01:37;;;;;;;33.60;30.58;;;16.50;99.90;;;;;;5057827;28;20052;-86
2022/10/30 02:04:03;;;;;;;34.90;31.15;;;16.50;99.90;;;;;;5038341;28;20044;-86
2022/10/30 02:06:29;;;;;;;34.08;30.67;;;16.50;99.90;;;;;;5077017;28;20043;-86
2022/10/30 02:08:55;;;;;;;35.53;31.05;;;16.60;99.90;;;;;;5060360;28;20377;-87
2022/10/30 02:11:22;;;;;;;33.67;30.15;;;16.40;99.90;;;;;;5042558;28;20051;-87
2022/10/30 02:13:49;;;;;;;31.85;28.85;;;16.10;99.90;;;;;;5022877;28;20048;-86
2022/10/30 02:16:15;;;;;;;32.22;29.13;;;16.00;99.90;;;;;;5045760;28;20535;-87
2022/10/30 02:18:41;;;;;;;33.58;29.83;;;15.80;99.90;;;;;;5041702;28;20033;-87
2022/10/30 02:21:07;;;;;;;33.10;29.95;;;15.80;99.90;;;;;;5063973;28;20032;-87
2022/10/30 02:23:34;;;;;;;32.40;29.35;;;15.80;99.90;;;;;;5043275;28;20035;-86
2022/10/30 02:26:00;;;;;;;33.13;30.35;;;15.80;99.90;;;;;;5038288;28;20037;-87
2022/10/30 02:28:26;;;;;;;34.85;31.65;;;15.90;99.90;;;;;;5055605;28;20031;-86
2022/10/30 02:30:52;;;;;;;32.97;29.75;;;16.00;99.90;;;;;;5046175;28;20036;-86
2022/10/30 02:33:18;;;;;;;33.33;30.08;;;16.00;99.90;;;;;;5056218;28;20040;-86
2022/10/30 02:35:44;;;;;;;33.30;30.10;;;16.00;99.90;;;;;;5058669;28;20039;-87
2022/10/30 02:38:10;;;;;;;33.17;30.25;;;16.00;99.90;;;;;;5075307;28;20020;-86
2022/10/30 02:40:36;;;;;;;32.22;29.17;;;16.10;99.90;;;;;;5063353;28;20032;-88
2022/10/30 02:43:02;;;;;;;31.42;28.92;;;16.20;99.90;;;;;;5050132;28;20063;-87
2022/10/30 02:45:28;;;;;;;30.95;28.02;;;16.40;99.90;;;;;;5041623;28;20037;-88
2022/10/30 02:47:55;;;;;;;32.42;29.23;;;16.60;99.90;;;;;;5054283;28;20047;-88
2022/10/30 02:50:21;;;;;;;31.42;28.70;;;16.70;99.90;;;;;;5051771;28;20036;-87
2022/10/30 02:52:47;;;;;;;30.58;27.90;;;16.80;99.90;;;;;;5074420;28;20500;-87
2022/10/30 02:55:13;;;;;;;32.28;29.33;;;16.40;99.90;;;;;;5028382;28;20040;-87
2022/10/30 02:57:39;;;;;;;32.25;29.30;;;16.40;99.90;;;;;;5068005;28;20542;-86
2022/10/30 03:00:06;;;;;;;31.42;28.83;;;16.50;99.90;;;;;;5067971;28;20035;-88
2022/10/30 03:02:32;;;;;;;32.80;30.00;;;16.60;99.90;;;;;;5041143;28;20055;-87
2022/10/30 03:04:58;;;;;;;32.67;29.80;;;16.60;99.90;;;;;;5059009;28;20028;-87
2022/10/30 03:07:24;;;;;;;33.55;30.00;;;16.70;99.90;;;;;;5072844;28;20028;-87
2022/10/30 03:09:51;;;;;;;32.97;30.13;;;16.70;99.90;;;;;;5050722;28;20051;-86
2022/10/30 03:12:17;;;;;;;33.92;30.58;;;16.80;99.90;;;;;;5053237;28;20041;-85
2022/10/30 03:14:43;;;;;;;31.48;28.85;;;16.80;99.90;;;;;;5036135;28;20042;-88
2022/10/30 03:17:09;;;;;;;34.90;30.27;;;16.70;99.90;;;;;;5064849;28;20044;-87
2022/10/30 03:19:35;;;;;;;30.75;28.20;;;16.80;99.90;;;;;;5067455;28;20031;-87
2022/10/30 03:22:01;;;;;;;33.80;30.98;;;16.90;99.90;;;;;;5036843;28;20393;-87
2022/10/30 03:24:27;;;;;;;32.28;29.38;;;16.90;99.90;;;;;;5038100;28;20477;-88
2022/10/30 03:26:53;;;;;;;33.25;30.13;;;16.90;99.90;;;;;;5053362;28;20045;-87
2022/10/30 03:29:19;;;;;;;31.70;29.20;;;16.90;99.90;;;;;;5054054;28;20469;-87
2022/10/30 03:31:45;;;;;;;30.80;28.35;;;16.90;99.90;;;;;;5052591;28;20040;-88
2022/10/30 03:34:12;;;;;;;32.45;29.40;;;16.90;99.90;;;;;;5052789;28;20504;-87
2022/10/30 03:36:38;;;;;;;30.60;27.98;;;16.90;99.90;;;;;;5037170;28;20044;-87
2022/10/30 03:39:04;;;;;;;32.67;29.60;;;16.90;99.90;;;;;;5042101;28;20039;-86
2022/10/30 03:41:30;;;;;;;30.92;28.00;;;16.90;99.90;;;;;;5057960;28;20035;-86
2022/10/30 03:43:56;;;;;;;32.95;29.63;;;16.90;99.90;;;;;;5058219;28;20024;-87
2022/10/30 03:46:22;;;;;;;32.95;29.83;;;16.90;99.90;;;;;;5039113;28;20476;-87
2022/10/30 03:48:49;;;;;;;32.50;29.83;;;17.00;99.90;;;;;;5046324;28;20033;-87
2022/10/30 03:51:15;;;;;;;32.53;29.95;;;16.90;99.90;;;;;;5054402;28;20028;-87
2022/10/30 03:53:41;;;;;;;32.22;29.02;;;16.90;99.90;;;;;;5037771;28;20040;-87
2022/10/30 03:56:08;;;;;;;31.25;28.27;;;16.90;99.90;;;;;;5054567;28;20055;-87
2022/10/30 03:58:34;;;;;;;33.22;30.42;;;16.90;99.90;;;;;;5045000;28;20043;-87
2022/10/30 04:01:04;;;;;;;32.85;30.13;;;17.00;99.90;;;;;;5048904;28;20397;-86
2022/10/30 04:03:31;;;;;;;31.73;28.75;;;17.00;99.90;;;;;;5050484;28;20036;-87
2022/10/30 04:05:57;;;;;;;31.45;28.48;;;17.00;99.90;;;;;;5054453;28;20028;-87
2022/10/30 04:08:23;;;;;;;30.55;27.90;;;17.00;99.90;;;;;;5055502;28;20032;-89
2022/10/30 04:10:49;;;;;;;31.15;28.10;;;17.00;99.90;;;;;;5055620;28;20461;-88
2022/10/30 04:13:16;;;;;;;31.38;28.58;;;16.90;99.90;;;;;;5038357;28;20049;-89
2022/10/30 04:15:42;;;;;;;32.28;29.08;;;16.80;99.90;;;;;;5054342;28;20062;-89
2022/10/30 04:18:11;;;;;;;32.25;28.85;;;16.80;99.90;;;;;;5062992;28;20116;-88
2022/10/30 04:20:38;;;;;;;30.73;28.15;;;16.80;99.90;;;;;;5050665;28;20044;-89
2022/10/30 04:23:05;;;;;;;31.80;29.00;;;16.90;99.90;;;;;;5054570;28;20040;-88
2022/10/30 04:25:32;;;;;;;32.42;29.13;;;16.80;99.90;;;;;;5038395;28;20367;-89
2022/10/30 04:27:59;;;;;;;32.92;29.75;;;16.80;99.90;;;;;;5039017;28;20048;-88
2022/10/30 04:30:26;;;;;;;33.35;30.65;;;16.80;99.90;;;;;;5054350;28;20025;-89
2022/10/30 04:32:55;;;;;;;32.90;29.83;;;16.80;99.90;;;;;;5043915;28;20376;-90
2022/10/30 04:35:23;;;;;;;32.42;29.50;;;16.80;99.90;;;;;;5081983;28;20032;-90
2022/10/30 04:38:00;;;;;;;30.83;27.92;;;16.80;99.90;;;;;;5073738;28;20044;-89
2022/10/30 04:40:28;;;;;;;31.48;28.63;;;16.90;99.90;;;;;;5046115;28;20029;-89
2022/10/30 04:42:54;;;;;;;34.05;31.02;;;17.00;99.90;;;;;;5054134;28;20037;-89
2022/10/30 04:45:20;;;;;;;31.83;29.23;;;16.90;99.90;;;;;;5044838;28;20048;-89
2022/10/30 04:47:47;;;;;;;33.38;30.45;;;16.90;99.90;;;;;;5053793;28;20043;-90
2022/10/30 04:50:13;;;;;;;33.03;29.80;;;16.90;99.90;;;;;;5079302;28;20036;-90
2022/10/30 04:52:39;;;;;;;35.95;32.72;;;17.00;99.90;;;;;;5037812;28;20036;-90
2022/10/30 04:55:06;;;;;;;38.60;35.50;;;17.00;99.90;;;;;;5062501;28;20465;-90
2022/10/30 04:57:33;;;;;;;37.13;33.85;;;16.90;99.90;;;;;;5044625;28;20055;-91
2022/10/30 04:59:59;;;;;;;37.78;34.63;;;16.70;99.90;;;;;;5046992;28;20033;-89
2022/10/30 05:02:25;;;;;;;37.40;34.05;;;16.50;99.90;;;;;;5044333;28;20040;-89
2022/10/30 05:04:51;;;;;;;35.03;31.98;;;16.50;99.90;;;;;;5051285;28;20040;-89
2022/10/30 05:07:17;;;;;;;36.58;33.40;;;16.60;99.90;;;;;;5056166;28;20024;-89
2022/10/30 05:09:43;;;;;;;36.42;33.38;;;16.70;99.90;;;;;;5061859;28;20048;-89
2022/10/30 05:12:09;;;;;;;34.33;31.42;;;16.70;99.90;;;;;;5065918;28;20028;-90
2022/10/30 05:14:36;;;;;;;36.13;33.20;;;16.70;99.90;;;;;;5065422;28;20032;-90
2022/10/30 05:17:02;;;;;;;34.58;31.23;;;16.80;99.90;;;;;;5054461;28;20041;-90
2022/10/30 05:19:28;;;;;;;35.38;32.25;;;16.90;99.90;;;;;;5038290;28;20363;-89
2022/10/30 05:21:54;;;;;;;34.78;31.95;;;16.90;99.90;;;;;;5048624;28;20048;-90
2022/10/30 05:24:20;;;;;;;35.80;32.38;;;16.90;99.90;;;;;;5039590;28;20467;-88
2022/10/30 05:26:47;;;;;;;33.97;30.88;;;17.00;99.90;;;;;;5038303;28;20029;-90
2022/10/30 05:29:13;;;;;;;37.30;33.65;;;17.00;99.90;;;;;;5026902;28;20417;-90
2022/10/30 05:31:39;;;;;;;35.53;32.40;;;17.00;99.90;;;;;;5039330;28;20045;-90
2022/10/30 05:34:05;;;;;;;37.15;33.42;;;16.90;99.90;;;;;;5038507;28;20029;-90
2022/10/30 05:36:31;;;;;;;34.63;31.73;;;16.90;99.90;;;;;;5046304;28;20068;-90
2022/10/30 05:38:58;;;;;;;34.90;32.10;;;16.90;99.90;;;;;;5053827;28;20041;-90
2022/10/30 05:41:24;;;;;;;35.10;31.90;;;16.90;99.90;;;;;;5048258;28;20482;-89
2022/10/30 05:43:50;;;;;;;37.83;34.45;;;16.90;99.90;;;;;;5042342;28;20057;-91
2022/10/30 05:46:16;;;;;;;36.40;33.72;;;16.90;99.90;;;;;;5043269;28;20033;-90
2022/10/30 05:48:42;;;;;;;35.88;32.92;;;16.90;99.90;;;;;;5018014;28;20494;-86
2022/10/30 05:51:08;;;;;;;35.42;32.33;;;16.80;99.90;;;;;;5018528;28;20025;-86
2022/10/30 05:53:34;;;;;;;33.95;31.23;;;16.70;99.90;;;;;;5050440;28;20033;-87
2022/10/30 05:56:00;;;;;;;31.33;28.92;;;16.60;99.90;;;;;;5045195;28;20033;-86
2022/10/30 05:58:26;;;;;;;32.55;29.90;;;16.50;99.90;;;;;;5023525;28;20056;-86
2022/10/30 06:00:52;;;;;;;29.50;26.85;;;16.50;99.90;;;;;;5052985;28;20044;-87
2022/10/30 06:03:18;;;;;;;29.92;27.48;;;16.30;99.90;;;;;;5035941;28;20044;-87
2022/10/30 06:05:45;;;;;;;30.48;27.65;;;16.20;99.90;;;;;;5046240;28;20466;-86
2022/10/30 06:08:11;;;;;;;31.63;29.00;;;16.30;99.90;;;;;;5033166;28;20030;-88
2022/10/30 06:10:37;;;;;;;32.45;30.15;;;16.40;99.90;;;;;;5000764;28;20046;-86
2022/10/30 06:13:05;;;;;;;26.83;24.88;;;16.30;99.90;;;;;;5032751;28;20064;-87
2022/10/30 06:15:31;;;;;;;25.83;23.45;;;16.30;99.90;;;;;;5019218;28;20055;-88
2022/10/30 06:17:57;;;;;;;28.27;25.88;;;16.30;99.90;;;;;;5039627;28;20076;-86
2022/10/30 06:20:26;;;;;;;27.88;25.80;;;16.30;99.90;;;;;;5053085;28;20033;-88
2022/10/30 06:22:59;;;;;;;29.77;27.65;;;16.30;99.90;;;;;;5036618;28;20028;-86
2022/10/30 06:25:25;;;;;;;29.27;27.17;;;16.40;99.90;;;;;;5020466;28;20040;-88
2022/10/30 06:27:51;;;;;;;30.17;27.42;;;16.30;99.90;;;;;;5029739;28;20052;-87
2022/10/30 06:30:17;;;;;;;29.35;26.83;;;16.40;99.90;;;;;;5035155;28;20032;-86
2022/10/30 06:32:43;;;;;;;31.45;29.45;;;16.40;99.90;;;;;;5046728;28;20040;-85
2022/10/30 06:35:10;;;;;;;35.15;32.70;;;16.40;99.90;;;;;;5071128;28;20028;-87
2022/10/30 06:37:38;;;;;;;31.83;29.52;;;16.30;99.90;;;;;;5062572;28;20068;-86
2022/10/30 06:40:06;;;;;;;27.02;25.00;;;16.20;99.90;;;;;;5049534;28;20478;-87
2022/10/30 06:42:32;;;;;;;27.30;25.15;;;16.40;99.90;;;;;;5060865;28;20492;-87
2022/10/30 06:44:58;;;;;;;26.65;24.85;;;16.30;99.90;;;;;;5062623;28;20037;-92
2022/10/30 06:47:25;;;;;;;26.33;24.27;;;16.30;99.90;;;;;;5061376;28;20051;-86
2022/10/30 06:49:51;;;;;;;25.98;23.98;;;16.20;99.90;;;;;;5049676;28;20058;-93
2022/10/30 06:52:21;;;;;;;26.13;24.10;;;16.10;99.90;;;;;;5058465;28;20474;-88
2022/10/30 06:54:47;;;;;;;25.38;23.52;;;16.10;99.90;;;;;;5069958;28;20496;-86
2022/10/30 06:57:13;;;;;;;26.58;24.17;;;16.20;99.90;;;;;;5067319;28;20041;-85
2022/10/30 06:59:39;;;;;;;26.27;24.55;;;16.30;99.90;;;;;;5067264;28;20489;-85
2022/10/30 07:02:08;;;;;;;26.98;25.33;;;16.30;99.90;;;;;;5070521;28;20040;-87
2022/10/30 07:04:34;;;;;;;27.92;25.85;;;16.40;99.90;;;;;;5054776;28;20043;-85
2022/10/30 07:07:00;;;;;;;29.48;27.58;;;16.40;99.90;;;;;;5034898;28;20036;-86
2022/10/30 07:09:26;;;;;;;30.08;27.67;;;16.50;99.90;;;;;;5037290;28;20044;-88
2022/10/30 07:11:52;;;;;;;28.30;26.35;;;16.60;99.90;;;;;;5037579;28;20040;-89
2022/10/30 07:14:19;;;;;;;29.95;27.48;;;16.70;99.90;;;;;;5038458;28;20048;-88
2022/10/30 07:16:45;;;;;;;28.63;26.77;;;16.70;99.90;;;;;;5034930;28;20044;-87
2022/10/30 07:19:11;;;;;;;27.88;25.85;;;16.80;99.90;;;;;;5065969;28;20033;-88
2022/10/30 07:21:37;;;;;;;29.60;27.63;;;16.80;99.90;;;;;;5072830;28;20036;-92
2022/10/30 07:24:03;;;;;;;30.60;28.60;;;16.80;99.90;;;;;;5045235;28;20450;-93
2022/10/30 07:26:29;;;;;;;29.65;27.58;;;16.90;99.90;;;;;;5062821;28;20393;-90
2022/10/30 07:28:56;;;;;;;30.50;28.40;;;16.80;99.90;;;;;;5058513;28;20488;-91
2022/10/30 07:31:22;;;;;;;28.85;26.95;;;16.80;99.90;;;;;;5046069;28;20051;-90
2022/10/30 07:33:48;;;;;;;31.48;29.15;;;16.80;99.90;;;;;;5079348;28;20028;-88
2022/10/30 07:36:14;;;;;;;33.33;31.15;;;16.80;99.90;;;;;;5071913;28;20044;-88
2022/10/30 07:38:40;;;;;;;35.03;32.25;;;16.80;99.90;;;;;;5036808;28;20047;-89
2022/10/30 07:41:06;;;;;;;34.45;31.95;;;16.80;99.90;;;;;;5053234;28;20033;-90
2022/10/30 07:43:32;;;;;;;34.03;31.73;;;16.60;99.90;;;;;;5056875;28;20041;-89
2022/10/30 07:45:58;;;;;;;32.30;29.83;;;16.50;99.90;;;;;;5051648;28;20044;-88
2022/10/30 07:48:24;;;;;;;34.92;32.25;;;16.60;99.90;;;;;;5053441;28;20400;-88
2022/10/30 07:50:50;;;;;;;34.15;31.85;;;16.60;99.90;;;;;;5056840;28;20029;-91
2022/10/30 07:53:16;;;;;;;32.70;30.80;;;16.50;99.90;;;;;;5046294;28;20040;-91
2022/10/30 07:55:43;;;;;;;33.38;31.00;;;16.40;99.90;;;;;;5059555;28;20461;-87
2022/10/30 07:58:09;;;;;;;37.85;35.25;;;16.30;99.90;;;;;;5074017;28;20048;-93
2022/10/30 08:00:35;;;;;;;41.08;38.47;;;16.40;99.90;;;;;;5054774;28;20036;-87
2022/10/30 08:03:01;;;;;;;40.92;38.42;;;16.50;99.90;;;;;;5055342;28;20021;-89
2022/10/30 08:05:27;;;;;;;36.33;34.00;;;16.60;99.90;;;;;;5072838;28;20036;-89
2022/10/30 08:07:53;;;;;;;36.03;33.88;;;16.60;99.90;;;;;;5053649;28;20492;-89
2022/10/30 08:10:19;;;;;;;40.40;37.60;;;16.60;99.90;;;;;;5069028;28;20017;-95
2022/10/30 08:12:47;;;;;;;44.00;41.17;;;16.60;99.90;;;;;;5061301;28;20031;-91
2022/10/30 08:15:13;;;;;;;30.70;28.65;;;16.70;99.90;;;;;;5073320;28;20039;-88
2022/10/30 08:17:46;;;;;;;30.45;28.45;;;16.80;99.90;;;;;;5039826;28;20417;-89
2022/10/30 08:20:14;;;;;;;28.52;26.63;;;16.80;99.90;;;;;;5054399;28;20055;-87
2022/10/30 08:22:50;;;;;;;28.35;26.23;;;16.90;99.90;;;;;;5054422;28;20032;-89
2022/10/30 08:25:17;;;;;;;31.00;28.65;;;16.80;99.90;;;;;;5038753;28;20032;-89
2022/10/30 08:27:54;;;;;;;31.00;28.65;;;16.60;99.90;;;;;;5058814;28;20021;-90
2022/10/30 08:30:21;;;;;;;34.03;31.00;;;16.60;99.90;;;;;;5059967;28;20024;-93
2022/10/30 08:32:47;;;;;;;37.15;34.13;;;16.50;99.90;;;;;;5066467;28;20020;-87
2022/10/30 08:35:15;;;;;;;40.17;37.53;;;16.40;99.90;;;;;;5050317;28;20032;-87
2022/10/30 08:37:41;;;;;;;37.63;35.33;;;16.40;99.90;;;;;;5061764;28;20032;-87
2022/10/30 08:40:09;;;;;;;43.05;39.92;;;16.50;99.90;;;;;;5037516;28;20032;-87
2022/10/30 08:42:35;;;;;;;41.65;39.17;;;16.70;99.90;;;;;;5043923;28;20044;-87
2022/10/30 08:45:01;;;;;;;39.97;37.60;;;16.80;99.90;;;;;;5059486;28;20024;-88
2022/10/30 08:47:27;;;;;;;38.13;35.80;;;16.80;99.90;;;;;;5055002;28;20039;-85
2022/10/30 08:49:53;;;;;;;29.65;27.60;;;16.70;99.90;;;;;;5058041;28;20040;-88
2022/10/30 08:52:19;;;;;;;32.92;30.50;;;16.70;99.90;;;;;;5058333;28;20048;-90
2022/10/30 08:54:46;;;;;;;35.75;33.35;;;16.50;99.90;;;;;;5083294;28;20032;-93
2022/10/30 08:57:12;;;;;;;39.97;37.65;;;16.50;99.90;;;;;;5063378;28;20040;-88
2022/10/30 08:59:38;;;;;;;40.10;37.42;;;16.60;99.90;;;;;;5064689;28;20039;-87
2022/10/30 09:02:06;;;;;;;38.55;35.92;;;16.50;99.90;;;;;;5077715;28;20035;-94
2022/10/30 09:04:32;;;;;;;41.95;38.95;;;16.50;99.90;;;;;;5083107;28;20036;-92
2022/10/30 09:07:00;;;;;;;44.75;41.45;;;16.70;99.90;;;;;;5079926;28;20050;-90
2022/10/30 09:09:26;;;;;;;40.28;37.58;;;16.90;99.90;;;;;;5080324;28;20024;-91
2022/10/30 09:11:52;;;;;;;41.45;38.85;;;17.00;99.90;;;;;;5068051;28;20044;-91
2022/10/30 09:14:18;;;;;;;42.60;39.95;;;17.00;99.90;;;;;;5066368;28;20028;-92
2022/10/30 09:16:44;;;;;;;44.95;41.97;;;17.10;99.90;;;;;;5063591;28;20056;-90
2022/10/30 09:19:11;;;;;;;44.03;41.40;;;17.10;99.90;;;;;;5060194;28;20039;-89
2022/10/30 09:21:37;;;;;;;45.92;43.10;;;17.00;99.90;;;;;;5066232;28;20490;-89
2022/10/30 09:24:03;;;;;;;46.85;43.78;;;17.10;99.90;;;;;;5064190;28;20048;-91
2022/10/30 09:26:29;;;;;;;50.05;47.15;;;16.90;99.90;;;;;;5089379;28;20469;-90
2022/10/30 09:28:55;;;;;;;49.85;46.90;;;16.90;99.90;;;;;;5051140;28;20032;-88
2022/10/30 09:31:21;;;;;;;49.88;46.97;;;16.90;99.90;;;;;;5064532;28;20063;-91
2022/10/30 09:33:47;;;;;;;50.63;47.85;;;17.00;99.90;;;;;;5081018;28;20035;-90
2022/10/30 09:36:14;;;;;;;49.90;46.70;;;17.00;99.90;;;;;;5086889;28;20358;-89
2022/10/30 09:38:40;;;;;;;49.42;46.58;;;17.10;99.90;;;;;;5083407;28;20043;-89
2022/10/30 09:41:28;;;;;;;51.75;48.50;;;16.90;99.90;;;;;;5060217;28;20047;-88
2022/10/30 09:44:02;;;;;;;48.45;45.38;;;17.00;99.90;;;;;;5089202;28;20035;-92
2022/10/30 09:46:28;;;;;;;50.22;47.40;;;17.00;99.90;;;;;;5096283;28;20032;-90
2022/10/30 09:48:54;;;;;;;48.25;45.63;;;17.10;99.90;;;;;;5093235;28;20025;-90
2022/10/30 09:51:33;;;;;;;47.13;44.30;;;17.10;99.90;;;;;;5093244;28;20473;-89
2022/10/30 09:54:13;;;;;;;45.75;42.95;;;16.90;99.90;;;;;;5086693;28;20024;-87
2022/10/30 09:57:10;;;;;;;54.78;51.35;;;16.90;99.90;;;;;;5088019;28;20024;-88
2022/10/30 09:59:39;;;;;;;50.58;47.60;;;17.00;99.90;;;;;;5085758;28;20044;-88
2022/10/30 10:02:17;;;;;;;49.08;45.90;;;17.10;99.90;;;;;;5087332;28;20050;-89
2022/10/30 10:04:45;;;;;;;42.10;39.33;;;17.20;99.90;;;;;;5087917;28;20036;-89
2022/10/30 10:07:28;;;;;;;43.17;40.45;;;17.20;99.90;;;;;;5047324;28;20040;-87
2022/10/30 10:10:02;;;;;;;36.88;34.13;;;17.20;99.90;;;;;;5080996;28;20032;-87
2022/10/30 10:12:39;;;;;;;35.85;33.40;;;17.20;99.90;;;;;;5066737;28;20412;-87
2022/10/30 10:15:28;;;;;;;33.15;30.77;;;17.10;99.90;;;;;;5066815;28;20031;-89
2022/10/30 10:17:54;;;;;;;34.35;32.20;;;16.80;99.90;;;;;;5047216;28;20514;-88
2022/10/30 10:20:28;;;;;;;38.28;35.97;;;16.80;99.90;;;;;;5066216;28;20036;-88
2022/10/30 10:22:54;;;;;;;39.85;37.30;;;17.00;99.90;;;;;;5050054;28;20043;-88
2022/10/30 10:25:21;;;;;;;37.00;34.53;;;17.10;99.90;;;;;;5086706;28;20499;-88
2022/10/30 10:28:15;;;;;;;40.20;37.80;;;17.10;99.90;;;;;;5037448;28;20378;-88
2022/10/30 10:30:49;;;;;;;39.40;36.88;;;17.20;99.90;;;;;;5047557;28;20064;-89
2022/10/30 10:33:21;;;;;;;34.65;32.30;;;17.20;99.90;;;;;;5028410;28;20043;-88
2022/10/30 10:36:13;;;;;;;33.75;31.52;;;17.20;99.90;;;;;;5062644;28;20044;-88
2022/10/30 10:39:18;;;;;;;35.85;33.67;;;17.30;99.90;;;;;;5055450;28;20533;-88
2022/10/30 10:41:47;;;;;;;34.50;32.63;;;17.30;99.90;;;;;;5077449;28;20043;-88
2022/10/30 10:44:32;;;;;;;35.92;33.83;;;17.40;99.90;;;;;;5075945;28;20036;-89
2022/10/30 10:47:31;;;;;;;32.15;30.17;;;17.30;99.90;;;;;;5075936;28;20032;-92
2022/10/30 10:50:32;;;;;;;32.55;30.45;;;17.30;99.90;;;;;;5083017;28;20036;-90
2022/10/30 10:52:59;;;;;;;;;;;17.30;99.90;;;;;;5059896;28;20036;-87
2022/10/30 10:55:27;;;;;;;32.20;30.10;;;17.30;99.90;;;;;;5060261;28;19908;-90
2022/10/30 10:57:56;;;;;;;35.38;33.47;;;17.30;99.90;;;;;;5048389;28;20036;-89
2022/10/30 11:00:22;;;;;;;39.45;37.17;;;17.30;99.90;;;;;;5074675;28;20045;-89
2022/10/30 11:03:00;;;;;;;39.20;36.90;;;17.40;99.90;;;;;;5045268;28;20028;-90
2022/10/30 11:05:31;;;;;;;37.38;35.25;;;17.30;99.90;;;;;;5078113;28;20050;-86
2022/10/30 11:08:01;;;;;;;32.50;30.60;;;17.20;99.90;;;;;;5063145;28;20035;-90
2022/10/30 11:10:27;;;;;;;38.15;35.85;;;17.10;99.90;;;;;;5054610;28;20036;-90
2022/10/30 11:12:53;;;;;;;37.45;35.40;;;17.10;99.90;;;;;;5042737;28;20039;-92
2022/10/30 11:15:28;;;;;;;36.20;34.28;;;17.20;99.90;;;;;;5044845;28;20048;-92
2022/10/30 11:17:58;;;;;;;34.40;32.38;;;17.30;99.90;;;;;;5047021;28;20395;-90
2022/10/30 11:20:36;;;;;;;33.53;31.38;;;17.40;99.90;;;;;;5052791;28;20464;-88
2022/10/30 11:23:02;;;;;;;30.42;28.73;;;17.40;99.90;;;;;;5039257;28;20032;-91
2022/10/30 11:25:35;;;;;;;33.35;31.55;;;17.30;99.90;;;;;;5057791;28;20024;-90
2022/10/30 11:28:03;;;;;;;32.65;30.67;;;17.40;99.90;;;;;;5057374;28;20032;-89
2022/10/30 11:30:30;;;;;;;33.28;31.15;;;17.30;99.90;;;;;;5036924;28;20032;-90
2022/10/30 11:32:56;;;;;;;32.28;30.38;;;17.30;99.90;;;;;;5057210;28;20422;-86
2022/10/30 11:35:23;;;;;;;31.77;30.02;;;17.30;99.90;;;;;;5046174;28;20039;-92
2022/10/30 11:38:13;;;;;;;31.92;29.98;;;17.40;99.90;;;;;;5058560;28;20040;-89
2022/10/30 11:40:40;;;;;;;31.23;29.27;;;17.40;99.90;;;;;;5042108;28;20039;-89
2022/10/30 11:43:07;;;;;;;30.88;29.17;;;17.40;99.90;;;;;;5027531;28;20040;-83
2022/10/30 11:45:39;;;;;;;32.92;30.98;;;17.30;99.90;;;;;;5031034;28;20036;-84
2022/10/30 11:48:36;;;;;;;30.73;29.02;;;17.40;99.90;;;;;;5046113;28;20040;-85
2022/10/30 11:51:02;;;;;;;28.70;27.02;;;17.40;99.90;;;;;;5044101;28;20036;-85
2022/10/30 11:53:35;;;;;;;30.20;28.27;;;17.30;99.90;;;;;;5063654;28;20024;-86
2022/10/30 11:56:01;;;;;;;28.63;26.75;;;17.40;99.90;;;;;;5063429;28;20031;-84
2022/10/30 11:58:36;;;;;;;29.88;28.27;;;17.50;99.90;;;;;;5050551;28;20044;-85
2022/10/30 12:01:17;;;;;;;28.90;27.20;;;17.50;99.90;;;;;;5048439;28;20488;-84
2022/10/30 12:03:43;;;;;;;27.25;25.73;;;17.50;99.90;;;;;;5074608;28;20031;-86
2022/10/30 12:06:26;;;;;;;28.88;27.25;;;17.50;99.90;;;;;;5058386;28;20025;-86
2022/10/30 12:09:00;;;;;;;28.95;27.45;;;17.60;99.90;;;;;;5062371;28;20032;-85
2022/10/30 12:11:33;;;;;;;27.48;25.88;;;17.60;99.90;;;;;;5042099;28;20032;-86
2022/10/30 12:13:59;;;;;;;26.77;25.17;;;17.60;99.90;;;;;;5062519;28;20044;-86
2022/10/30 12:16:26;;;;;;;27.85;26.30;;;17.60;99.90;;;;;;5055641;28;20047;-85
2022/10/30 12:19:03;;;;;;;28.90;27.02;;;17.60;99.90;;;;;;5058159;28;20040;-84
2022/10/30 12:21:36;;;;;;;26.60;25.20;;;17.70;99.90;;;;;;5074793;28;20037;-85
2022/10/30 12:24:05;;;;;;;29.38;27.88;;;17.70;99.90;;;;;;5042883;28;20077;-85
2022/10/30 12:26:33;;;;;;;29.70;28.15;;;17.70;99.90;;;;;;5045736;28;20310;-85
2022/10/30 12:29:06;;;;;;;28.58;26.95;;;17.60;99.90;;;;;;5040842;28;20032;-85
2022/10/30 12:31:46;;;;;;;22.90;21.55;;;17.70;99.90;;;;;;5065551;28;20044;-86
2022/10/30 12:34:35;;;;;;;25.30;23.70;;;17.70;99.90;;;;;;5063516;28;20027;-86
2022/10/30 12:37:10;;;;;;;29.95;28.30;;;17.80;99.90;;;;;;5074649;28;20020;-86